TAF and METAR

Decoding for American and Canadian METARs and TAFs is not fully implemented.

Could not understand the following METAR

KVGT 061153Z AUTO 00000KT 10SM CLR 28/03 A2977 RMK AO2 SLP064 T02780028 10339 20267 53001

TAF for North Las Vegas Airport

KVGT 061120Z 0612/0712 VRB05KT P6SM SKC FM061600 14007KT P6SM SKC FM062100 19013G20KT P6SM SKC FM070300 21008KT P6SM SKC FM071000 VRB05KT P6SM SKC
Report created 6. aug 13:20

between 6. aug 14:00 - 7. aug 14:00

wind 5 knots from various directions
North Las Vegas Airport in United States of America at 671m

Latest 5 airports